Time;durP1;ratioP1;P1;durP2;ratioP2;P2;SDS_P1;SDS_P2;PMS_P1;PMS_P2;Temp;Humidity;BMP_temperature;BMP_pressure;BME280_temperature;BME280_humidity;BME280_pressure;Samples;Min_cycle;Max_cycle;Signal;HPM_P1;HPM_P2
2023/04/25 00:00:56;;;;;;;;;;;;;;;20.25;61.01;99905.77;2234109;79;51575;-75
2023/04/25 00:03:58;;;;;;;;;;;;;;;20.27;61.01;99909.57;2225573;78;51044;-74
2023/04/25 00:07:01;;;;;;;;;;;;;;;20.24;60.97;99902.77;2253793;78;50735;-74
2023/04/25 00:10:02;;;;;;;;;;;;;;;20.25;60.98;99911.67;2260257;78;50816;-75
2023/04/25 00:13:04;;;;;;;;;;;;;;;20.26;61.03;99913.31;2239436;78;53365;-74
2023/04/25 00:16:06;;;;;;;;;;;;;;;20.23;61.04;99908.66;2260157;78;51468;-74
2023/04/25 00:19:08;;;;;;;;;;;;;;;20.25;61.09;99898.23;2238650;78;50322;-75
2023/04/25 00:22:09;;;;;;;;;;;;;;;20.23;61.13;99904.63;2238935;78;50316;-75
2023/04/25 00:25:11;;;;;;;;;;;;;;;20.22;61.07;99910.23;2259952;78;50354;-75
2023/04/25 00:28:12;;;;;;;;;;;;;;;20.24;61.09;99904.11;2241448;78;50076;-75
2023/04/25 00:31:14;;;;;;;;;;;;;;;20.22;61.08;99907.55;2241364;78;50965;-75
2023/04/25 00:34:16;;;;;;;;;;;;;;;20.22;61.10;99909.70;2246815;78;51594;-76
2023/04/25 00:37:18;;;;;;;;;;;;;;;20.21;61.11;99908.56;2226018;78;51577;-75
2023/04/25 00:40:19;;;;;;;;;;;;;;;20.21;61.07;99908.04;2227969;79;51729;-74
2023/04/25 00:43:21;;;;;;;;;;;;;;;20.21;61.06;99912.59;2258217;78;50275;-74
2023/04/25 00:46:22;;;;;;;;;;;;;;;20.20;61.09;99907.75;2262772;78;50376;-75
2023/04/25 00:49:24;;;;;;;;;;;;;;;20.21;61.05;99909.38;2238120;78;50706;-74
2023/04/25 00:52:26;;;;;;;;;;;;;;;20.22;61.16;99900.31;2214097;78;50121;-74
2023/04/25 00:55:27;;;;;;;;;;;;;;;20.22;61.08;99908.36;2258863;78;51494;-76
2023/04/25 00:58:29;;;;;;;;;;;;;;;20.22;61.06;99912.39;2258966;78;51605;-76
2023/04/25 01:01:31;;;;;;;;;;;;;;;20.21;61.07;99901.84;2258916;78;51547;-76
2023/04/25 01:04:32;;;;;;;;;;;;;;;20.19;61.00;99906.11;2188125;79;50234;-75
2023/04/25 01:07:34;;;;;;;;;;;;;;;20.20;61.05;99900.21;2235931;79;52485;-76
2023/04/25 01:10:35;;;;;;;;;;;;;;;;;;2275276;78;51534;-75
2023/04/25 01:13:36;;;;;;;;;;;;;;;20.20;61.04;99892.16;2265121;78;50420;-75
2023/04/25 01:16:38;;;;;;;;;;;;;;;20.19;61.01;99891.83;2264656;78;50456;-75
2023/04/25 01:19:39;;;;;;;;;;;;;;;;;;2265124;78;51583;-75
2023/04/25 01:22:40;;;;;;;;;;;;;;;20.16;61.03;99882.86;2265165;78;49828;-75
2023/04/25 01:25:42;;;;;;;;;;;;;;;20.17;61.05;99879.97;2264958;78;50278;-73
2023/04/25 01:28:44;;;;;;;;;;;;;;;20.16;61.05;99885.02;2265123;77;50268;-75
2023/04/25 01:31:45;;;;;;;;;;;;;;;20.16;61.06;99880.17;2208690;78;51165;-75
2023/04/25 01:34:46;;;;;;;;;;;;;;;;;;2260842;78;50430;-75
2023/04/25 01:37:47;;;;;;;;;;;;;;;;;;2244125;79;51565;-75
2023/04/25 01:40:48;;;;;;;;;;;;;;;20.16;61.07;99883.67;2244250;79;51490;-76
2023/04/25 01:43:50;;;;;;;;;;;;;;;20.16;61.02;99887.70;2243869;78;51522;-75
2023/04/25 01:46:52;;;;;;;;;;;;;;;20.15;61.06;99887.41;2212280;79;52357;-75
2023/04/25 01:49:53;;;;;;;;;;;;;;;20.15;61.03;99892.78;2212387;79;51468;-76
2023/04/25 01:52:55;;;;;;;;;;;;;;;20.13;61.00;99885.45;2212397;79;51465;-76
2023/04/25 01:55:56;;;;;;;;;;;;;;;20.12;61.01;99890.53;2243747;79;51447;-75
2023/04/25 01:58:58;;;;;;;;;;;;;;;20.14;61.05;99888.45;2212128;79;51004;-76
2023/04/25 02:02:03;;;;;;;;;;;;;;;20.12;60.96;99887.84;2243996;79;51507;-76
2023/04/25 02:05:03;;;;;;;;;;;;;;;20.12;61.01;99882.99;2261877;78;23157;-75
2023/04/25 02:08:05;;;;;;;;;;;;;;;20.14;61.02;99888.95;2248713;78;51884;-76
2023/04/25 02:11:07;;;;;;;;;;;;;;;20.11;60.98;99888.86;2224897;78;51331;-74
2023/04/25 02:14:09;;;;;;;;;;;;;;;20.13;60.98;99886.79;2281250;78;50455;-74
2023/04/25 02:17:12;;;;;;;;;;;;;;;20.13;60.95;99891.34;2248506;78;51593;-75
2023/04/25 02:20:15;;;;;;;;;;;;;;;20.12;60.93;99897.77;2248946;78;50789;-75
2023/04/25 02:23:18;;;;;;;;;;;;;;;20.11;60.95;99890.20;2248448;78;49732;-76
2023/04/25 02:26:20;;;;;;;;;;;;;;;20.11;60.93;99892.06;2281126;78;51532;-75
2023/04/25 02:29:22;;;;;;;;;;;;;;;20.11;60.92;99887.52;2281302;78;52326;-76
2023/04/25 02:32:24;;;;;;;;;;;;;;;20.09;60.92;99887.42;2241868;78;50629;-75
2023/04/25 02:35:25;;;;;;;;;;;;;;;20.09;60.90;99882.05;2206524;79;51711;-75
2023/04/25 02:38:27;;;;;;;;;;;;;;;20.09;60.87;99882.89;2243903;79;51593;-75
2023/04/25 02:41:29;;;;;;;;;;;;;;;20.09;60.95;99888.27;2244795;79;51564;-76
2023/04/25 02:44:30;;;;;;;;;;;;;;;20.09;60.85;99881.55;2244084;79;50388;-75
2023/04/25 02:47:32;;;;;;;;;;;;;;;20.08;60.85;99882.57;2244085;79;50294;-75
2023/04/25 02:50:33;;;;;;;;;;;;;;;20.07;60.83;99884.96;2236262;79;50080;-75
2023/04/25 02:53:35;;;;;;;;;;;;;;;20.08;60.83;99885.78;2236193;79;50693;-75
2023/04/25 02:56:37;;;;;;;;;;;;;;;20.07;60.88;99886.30;2243829;79;50275;-75
2023/04/25 02:59:38;;;;;;;;;;;;;;;20.08;60.86;99888.47;2209385;79;51167;-76
2023/04/25 03:02:40;;;;;;;;;;;;;;;20.07;60.85;99886.30;2238560;78;50430;-75
2023/04/25 03:05:41;;;;;;;;;;;;;;;20.07;60.87;99883.62;2266366;77;50304;-76
2023/04/25 03:08:43;;;;;;;;;;;;;;;20.08;60.84;99884.44;2288913;77;50238;-75
2023/04/25 03:11:45;;;;;;;;;;;;;;;20.05;60.81;99878.97;2227988;79;51185;-75
2023/04/25 03:14:46;;;;;;;;;;;;;;;20.06;60.84;99885.98;2256478;78;49986;-75
2023/04/25 03:17:48;;;;;;;;;;;;;;;20.05;60.76;99887.03;2256716;78;50267;-75
2023/04/25 03:20:50;;;;;;;;;;;;;;;20.06;60.78;99887.32;2256721;78;50773;-75
2023/04/25 03:23:51;;;;;;;;;;;;;;;20.05;60.81;99892.40;2231983;79;52327;-74
2023/04/25 03:26:53;;;;;;;;;;;;;;;20.05;60.80;99888.38;2289086;77;51455;-75
2023/04/25 03:29:54;;;;;;;;;;;;;;;20.05;60.73;99888.89;2292464;76;52254;-75
2023/04/25 03:32:56;;;;;;;;;;;;;;;20.05;60.80;99885.69;2216334;79;50121;-75
2023/04/25 03:35:57;;;;;;;;;;;;;;;20.05;60.78;99891.58;2194787;80;51210;-73
2023/04/25 03:38:59;;;;;;;;;;;;;;;20.05;60.77;99886.20;2222641;80;50408;-74
2023/04/25 03:42:01;;;;;;;;;;;;;;;20.05;60.75;99887.55;2224677;80;50757;-74
2023/04/25 03:45:02;;;;;;;;;;;;;;;20.04;60.76;99894.80;2223492;80;50615;-75
2023/04/25 03:48:04;;;;;;;;;;;;;;;20.04;60.74;99892.59;2222565;80;51177;-76
2023/04/25 03:51:05;;;;;;;;;;;;;;;20.02;60.75;99890.14;2222766;80;50573;-74
2023/04/25 03:54:07;;;;;;;;;;;;;;;20.04;60.73;99893.45;2223388;80;51425;-75
2023/04/25 03:57:09;;;;;;;;;;;;;;;20.05;60.76;99895.09;2225348;80;50668;-74
2023/04/25 04:00:11;;;;;;;;;;;;;;;20.05;60.74;99894.27;2200827;80;51199;-74
2023/04/25 04:03:12;;;;;;;;;;;;;;;20.04;60.72;99897.48;2217725;78;50294;-74
2023/04/25 04:06:14;;;;;;;;;;;;;;;20.03;60.72;99902.52;2213922;79;50628;-75
2023/04/25 04:09:16;;;;;;;;;;;;;;;20.03;60.73;99904.39;2261202;78;50270;-75
2023/04/25 04:12:18;;;;;;;;;;;;;;;20.04;60.67;99904.19;2202991;78;52570;-75
2023/04/25 04:15:19;;;;;;;;;;;;;;;20.04;60.68;99908.70;2240188;78;51246;-76
2023/04/25 04:18:21;;;;;;;;;;;;;;;20.03;60.67;99911.09;2240245;78;50061;-76
2023/04/25 04:21:23;;;;;;;;;;;;;;;20.05;60.65;99913.06;2261215;77;51603;-75
2023/04/25 04:24:24;;;;;;;;;;;;;;;20.01;60.64;99913.48;2202701;78;52328;-75
2023/04/25 04:27:26;;;;;;;;;;;;;;;20.01;60.68;99920.70;2203769;78;51159;-75
2023/04/25 04:30:30;;;;;;;;;;;;;;;20.01;60.68;99922.89;2261059;78;51427;-75
2023/04/25 04:33:32;;;;;;;;;;;;;;;20.02;60.60;99914.31;2260998;78;50270;-75
2023/04/25 04:36:33;;;;;;;;;;;;;;;20.02;60.62;99919.69;2240419;79;50219;-75
2023/04/25 04:39:35;;;;;;;;;;;;;;;20.00;60.64;99920.41;2215700;79;50876;-75
2023/04/25 04:42:37;;;;;;;;;;;;;;;20.00;60.59;99922.56;2275960;78;50322;-75
2023/04/25 04:45:40;;;;;;;;;;;;;;;20.00;60.60;99917.72;2252332;78;50210;-75
2023/04/25 04:48:42;;;;;;;;;;;;;;;20.00;60.61;99920.41;2252437;78;51494;-75
2023/04/25 04:51:47;;;;;;;;;;;;;;;19.99;60.58;99925.48;2252121;78;51359;-75
2023/04/25 04:54:48;;;;;;;;;;;;;;;19.99;60.56;99929.50;2275866;78;50306;-74
2023/04/25 04:57:50;;;;;;;;;;;;;;;19.99;60.59;99924.95;2252418;78;50097;-75
2023/04/25 05:00:52;;;;;;;;;;;;;;;20.00;60.48;99930.63;2276015;78;51522;-75
2023/04/25 05:03:53;;;;;;;;;;;;;;;20.00;60.53;99933.83;2222918;78;51463;-77
2023/04/25 05:06:55;;;;;;;;;;;;;;;19.98;60.55;99930.00;2277773;78;51415;-74
2023/04/25 05:09:57;;;;;;;;;;;;;;;19.98;60.71;99928.66;2277932;78;51295;-74
2023/04/25 05:12:58;;;;;;;;;;;;;;;19.99;60.56;99934.35;2258469;78;51589;-74
2023/04/25 05:16:00;;;;;;;;;;;;;;;20.00;60.54;99935.17;2257492;78;52370;-75
2023/04/25 05:19:02;;;;;;;;;;;;;;;19.94;60.44;99936.02;2257885;78;50399;-74
2023/04/25 05:22:03;;;;;;;;;;;;;;;19.96;60.67;99939.30;2258108;78;50266;-74
2023/04/25 05:25:05;;;;;;;;;;;;;;;19.96;60.71;99937.46;2282929;77;51432;-74
2023/04/25 05:28:07;;;;;;;;;;;;;;;19.94;61.16;99939.53;2258174;78;51457;-73
2023/04/25 05:31:10;;;;;;;;;;;;;;;19.94;60.98;99946.23;2277616;78;50741;-74
2023/04/25 05:34:11;;;;;;;;;;;;;;;19.93;60.80;99943.75;2266027;77;51565;-74
2023/04/25 05:37:13;;;;;;;;;;;;;;;19.94;60.95;99945.42;2275015;78;51459;-74
2023/04/25 05:40:15;;;;;;;;;;;;;;;19.95;60.73;99945.72;2258783;78;50656;-74
2023/04/25 05:43:16;;;;;;;;;;;;;;;19.95;60.72;99940.34;2277690;78;49977;-75
2023/04/25 05:46:18;;;;;;;;;;;;;;;19.94;60.80;99946.23;2258132;78;51488;-73
2023/04/25 05:49:19;;;;;;;;;;;;;;;19.95;61.12;99952.42;2277523;78;50245;-74
2023/04/25 05:52:21;;;;;;;;;;;;;;;19.93;61.15;99950.47;2231921;78;51174;-74
2023/04/25 05:55:22;;;;;;;;;;;;;;;19.95;61.24;99952.42;2260758;78;50298;-72
2023/04/25 05:58:24;;;;;;;;;;;;;;;19.94;61.20;99952.95;2222334;79;50645;-74
2023/04/25 06:01:26;;;;;;;;;;;;;;;19.94;61.36;99958.32;2202277;80;50701;-74
2023/04/25 06:04:27;;;;;;;;;;;;;;;19.93;61.08;99959.34;2187243;79;51211;-73
2023/04/25 06:07:34;;;;;;;;;;;;;;;19.90;61.13;99966.99;2204540;80;50681;-73
2023/04/25 06:10:32;;;;;;;;;;;;;;;19.91;61.25;99962.77;2220886;79;22444;-73
2023/04/25 06:13:34;;;;;;;;;;;;;;;19.90;61.40;99972.36;2224747;80;51600;-75
2023/04/25 06:16:36;;;;;;;;;;;;;;;19.92;61.34;99972.98;2224300;80;50738;-74
2023/04/25 06:19:37;;;;;;;;;;;;;;;19.92;61.29;99972.47;2208231;80;50593;-74
2023/04/25 06:22:39;;;;;;;;;;;;;;;19.93;61.31;99969.26;2244664;78;50636;-73
2023/04/25 06:25:40;;;;;;;;;;;;;;;19.90;61.33;99979.08;2240345;79;51533;-73
2023/04/25 06:28:42;;;;;;;;;;;;;;;19.92;61.22;99979.17;2218926;79;51658;-74
2023/04/25 06:31:43;;;;;;;;;;;;;;;19.94;61.12;99972.27;2225271;79;51493;-74
2023/04/25 06:34:45;;;;;;;;;;;;;;;19.93;61.18;99974.62;2244254;78;51817;-74
2023/04/25 06:37:47;;;;;;;;;;;;;;;19.93;61.03;99975.97;2252798;78;51505;-74
2023/04/25 06:40:48;;;;;;;;;;;;;;;19.93;60.99;99985.37;2256669;78;51386;-74
2023/04/25 06:43:50;;;;;;;;;;;;;;;19.92;60.92;99977.02;2288545;77;51487;-73
2023/04/25 06:46:51;;;;;;;;;;;;;;;19.93;60.89;99982.69;2288588;77;50638;-74
2023/04/25 06:49:53;;;;;;;;;;;;;;;19.92;60.89;99979.70;2216134;78;50254;-74
2023/04/25 06:52:55;;;;;;;;;;;;;;;19.93;60.84;99980.81;2233317;78;49565;-73
2023/04/25 06:55:56;;;;;;;;;;;;;;;19.90;60.77;99992.50;2258583;78;51541;-74
2023/04/25 06:59:00;;;;;;;;;;;;;;;19.89;60.82;99978.78;2278058;78;50263;-74
2023/04/25 07:02:01;;;;;;;;;;;;;;;19.90;60.72;99977.73;2223067;78;50795;-72
2023/04/25 07:05:04;;;;;;;;;;;;;;;19.88;60.81;99977.11;2175815;79;51299;-74
2023/04/25 07:08:05;;;;;;;;;;;;;;;19.89;60.71;99992.20;2197510;81;50430;-74
2023/04/25 07:11:07;;;;;;;;;;;;;;;19.88;60.72;99987.84;2211636;79;52211;-74
2023/04/25 07:14:09;;;;;;;;;;;;;;;19.91;60.78;99992.80;2177161;81;50631;-74
2023/04/25 07:17:10;;;;;;;;;;;;;;;19.90;60.81;99997.88;2197004;80;51084;-74
2023/04/25 07:20:12;;;;;;;;;;;;;;;19.91;60.75;99999.02;2221324;80;51490;-74
2023/04/25 07:23:13;;;;;;;;;;;;;;;19.91;60.78;100000.86;2221313;80;51466;-73
2023/04/25 07:26:15;;;;;;;;;;;;;;;19.92;60.74;100005.20;2208753;80;50769;-74
2023/04/25 07:29:17;;;;;;;;;;;;;;;19.90;60.76;100015.33;2236156;78;51521;-75
2023/04/25 07:32:19;;;;;;;;;;;;;;;19.91;60.76;100015.62;2258795;78;50223;-75
2023/04/25 07:35:20;;;;;;;;;;;;;;;19.93;60.67;100017.59;2254425;78;50259;-74
2023/04/25 07:38:22;;;;;;;;;;;;;;;19.86;60.66;100027.01;2245997;78;50119;-74
2023/04/25 07:41:24;;;;;;;;;;;;;;;19.86;60.67;100028.84;2221624;78;51202;-75
2023/04/25 07:44:25;;;;;;;;;;;;;;;19.82;60.62;100030.30;2245596;78;51520;-74
2023/04/25 07:47:27;;;;;;;;;;;;;;;19.80;60.62;100034.00;2245709;78;51595;-75
2023/04/25 07:50:28;;;;;;;;;;;;;;;19.78;60.63;100034.75;2245654;78;51536;-74
2023/04/25 07:53:30;;;;;;;;;;;;;;;19.78;60.65;100036.58;2221276;78;54075;-74
2023/04/25 07:56:32;;;;;;;;;;;;;;;19.77;60.56;100038.45;2266560;78;50269;-75
2023/04/25 07:59:33;;;;;;;;;;;;;;;19.77;60.54;100043.81;2245751;78;50077;-75
2023/04/25 08:02:35;;;;;;;;;;;;;;;19.79;60.61;100042.28;2229940;79;50362;-75
2023/04/25 08:05:36;;;;;;;;;;;;;;;19.75;60.60;100051.23;2211633;79;51690;-74
2023/04/25 08:08:38;;;;;;;;;;;;;;;19.79;60.58;100051.16;2229932;80;51450;-72
2023/04/25 08:11:39;;;;;;;;;;;;;;;19.81;60.56;100056.33;2208197;80;51518;-74
2023/04/25 08:14:41;;;;;;;;;;;;;;;19.82;60.79;100061.17;2229693;80;50436;-75
2023/04/25 08:17:43;;;;;;;;;;;;;;;19.79;60.92;100060.55;2207942;80;52626;-74
2023/04/25 08:20:45;;;;;;;;;;;;;;;19.80;60.85;100062.19;2208239;80;51580;-73
2023/04/25 08:23:47;;;;;;;;;;;;;;;19.80;60.85;100067.55;2229751;80;51529;-74
2023/04/25 08:26:48;;;;;;;;;;;;;;;19.80;60.80;100064.88;2208100;80;51435;-74
2023/04/25 08:29:50;;;;;;;;;;;;;;;19.79;60.83;100073.97;2184511;80;51300;-74
2023/04/25 08:32:52;;;;;;;;;;;;;;;19.83;60.76;100078.92;2257258;78;51553;-73
2023/04/25 08:35:54;;;;;;;;;;;;;;;19.87;60.66;100070.27;2277996;77;51312;-74
2023/04/25 08:38:55;;;;;;;;;;;;;;;19.87;60.66;100083.69;2238370;79;50294;-73
2023/04/25 08:41:57;;;;;;;;;;;;;;;19.86;60.67;100083.39;2275649;78;50283;-73
2023/04/25 08:44:58;;;;;;;;;;;;;;;19.86;60.72;100091.44;2275604;78;50414;-74
2023/04/25 08:48:00;;;;;;;;;;;;;;;19.84;60.74;100088.13;2275757;78;50641;-74
2023/04/25 08:51:02;;;;;;;;;;;;;;;19.84;60.74;100106.10;2275710;78;51452;-74
2023/04/25 08:54:11;;;;;;;;;;;;;;;19.82;60.70;100099.58;2227565;78;52722;-73
2023/04/25 08:57:12;;;;;;;;;;;;;;;19.83;60.65;100105.25;2252249;78;50490;-72
2023/04/25 09:00:14;;;;;;;;;;;;;;;19.84;60.67;100105.58;2275801;78;50721;-73
2023/04/25 09:03:16;;;;;;;;;;;;;;;19.86;60.68;100112.92;2244405;78;50015;-74
2023/04/25 09:06:18;;;;;;;;;;;;;;;19.87;60.58;100111.87;2199072;79;51256;-74
2023/04/25 09:09:19;;;;;;;;;;;;;;;19.87;60.51;100115.08;2222324;80;51516;-71
2023/04/25 09:12:21;;;;;;;;;;;;;;;19.93;60.50;100120.97;2221313;79;51546;-74
2023/04/25 09:15:22;;;;;;;;;;;;;;;19.92;60.47;100125.52;2207833;80;53664;-75
2023/04/25 09:18:26;;;;;;;;;;;;;;;19.91;60.49;100125.22;2205599;80;52326;-73
2023/04/25 09:21:28;;;;;;;;;;;;;;;19.94;60.46;100137.41;2229557;80;51592;-73
2023/04/25 09:24:34;;;;;;;;;;;;;;;19.92;60.45;100134.91;2229347;80;50759;-74
2023/04/25 09:27:35;;;;;;;;;;;;;;;19.92;60.42;100131.41;2229164;79;51427;-75
2023/04/25 09:30:37;;;;;;;;;;;;;;;19.90;60.42;100144.20;2231469;78;52347;-74
2023/04/25 09:33:39;;;;;;;;;;;;;;;19.94;60.43;100144.12;2242312;78;51517;-74
2023/04/25 09:36:41;;;;;;;;;;;;;;;19.94;60.42;100154.34;2207118;80;50149;-74
2023/04/25 09:39:43;;;;;;;;;;;;;;;19.96;60.38;100147.41;2229628;80;51530;-73
2023/04/25 09:42:45;;;;;;;;;;;;;;;19.95;60.36;100143.08;2183342;80;52244;-75
2023/04/25 09:45:47;;;;;;;;;;;;;;;19.96;60.37;100154.11;2207073;80;50345;-74
2023/04/25 09:48:49;;;;;;;;;;;;;;;19.94;60.42;100149.48;2207069;80;51560;-74
2023/04/25 09:51:56;;;;;;;;;;;;;;;19.94;60.36;100144.12;2183413;80;49719;-74
2023/04/25 09:54:58;;;;;;;;;;;;;;;19.95;60.33;100150.61;2228557;78;50321;-74
2023/04/25 09:58:00;;;;;;;;;;;;;;;19.94;60.39;100158.37;2229614;80;50289;-74
2023/04/25 10:01:03;;;;;;;;;;;;;;;19.94;60.39;100156.20;2233682;78;51460;-74
2023/04/25 10:04:04;;;;;;;;;;;;;;;19.93;60.42;100154.53;2245582;78;50663;-74
2023/04/25 10:07:06;;;;;;;;;;;;;;;19.92;60.32;100152.89;2206859;80;52507;-74
2023/04/25 10:10:08;;;;;;;;;;;;;;;19.92;60.30;100154.23;2229596;80;50312;-73
2023/04/25 10:13:10;;;;;;;;;;;;;;;19.90;60.29;100157.62;2229670;80;50245;-74
2023/04/25 10:16:11;;;;;;;;;;;;;;;19.91;60.29;100153.90;2229408;80;50865;-74
2023/04/25 10:19:13;;;;;;;;;;;;;;;19.90;60.25;100159.79;2182957;80;49526;-74
2023/04/25 10:22:18;;;;;;;;;;;;;;;19.92;60.23;100162.28;2229536;80;51616;-74
2023/04/25 10:25:20;;;;;;;;;;;;;;;19.91;60.25;100161.47;2229391;80;51390;-74
2023/04/25 10:28:21;;;;;;;;;;;;;;;19.92;60.24;100169.82;2229628;80;51555;-74
2023/04/25 10:31:23;;;;;;;;;;;;;;;19.91;60.21;100176.23;2215207;78;52391;-73
2023/04/25 10:34:26;;;;;;;;;;;;;;;19.91;60.17;100170.01;2252412;78;51487;-74
2023/04/25 10:37:27;;;;;;;;;;;;;;;19.89;60.13;100176.95;2289111;77;50330;-74
2023/04/25 10:40:29;;;;;;;;;;;;;;;19.89;60.25;100178.28;2288999;77;50451;-74
2023/04/25 10:43:33;;;;;;;;;;;;;;;19.89;60.18;100178.28;2218027;78;51055;-75
2023/04/25 10:46:35;;;;;;;;;;;;;;;19.89;60.17;100172.92;2261965;78;51524;-73
2023/04/25 10:49:38;;;;;;;;;;;;;;;19.89;60.20;100178.81;2265903;78;50307;-74
2023/04/25 10:52:42;;;;;;;;;;;;;;;19.88;60.16;100181.98;2282064;77;51287;-74
2023/04/25 10:55:51;;;;;;;;;;;;;;;19.87;60.20;100188.92;2228937;79;52558;-74
2023/04/25 10:58:53;;;;;;;;;;;;;;;19.88;60.18;100193.24;2291793;77;51847;-73
2023/04/25 11:01:54;;;;;;;;;;;;;;;19.87;60.15;100192.95;2277734;77;51581;-73
2023/04/25 11:04:56;;;;;;;;;;;;;;;19.88;60.11;100193.24;2183821;80;51566;-73
2023/04/25 11:07:58;;;;;;;;;;;;;;;19.87;59.99;100192.42;2198647;79;52642;-72
2023/04/25 11:10:59;;;;;;;;;;;;;;;19.87;59.99;100193.77;2244120;79;50690;-74
2023/04/25 11:14:01;;;;;;;;;;;;;;;19.87;59.96;100191.60;2240903;79;50649;-73
2023/04/25 11:17:03;;;;;;;;;;;;;;;19.88;59.96;100202.64;2240825;79;52222;-73
2023/04/25 11:20:08;;;;;;;;;;;;;;;19.88;59.99;100195.93;2198086;79;51741;-73
2023/04/25 11:23:08;;;;;;;;;;;;;;;19.84;60.04;100198.73;2240863;78;23078;-73
2023/04/25 11:26:09;;;;;;;;;;;;;;;19.84;60.02;100210.80;2240502;79;51599;-73
2023/04/25 11:29:11;;;;;;;;;;;;;;;19.83;60.06;100211.81;2240757;79;50481;-73
2023/04/25 11:32:12;;;;;;;;;;;;;;;19.80;60.06;100219.76;2212035;79;52469;-73
2023/04/25 11:35:15;;;;;;;;;;;;;;;19.79;59.98;100230.20;2218229;77;51512;-74
2023/04/25 11:38:16;;;;;;;;;;;;;;;19.80;60.01;100232.66;2240687;78;50286;-73
2023/04/25 11:41:18;;;;;;;;;;;;;;;19.79;59.98;100239.08;2259153;78;50332;-74
2023/04/25 11:44:20;;;;;;;;;;;;;;;19.79;59.91;100239.08;2198127;79;51017;-74
2023/04/25 11:47:23;;;;;;;;;;;;;;;19.78;59.92;100250.00;2259167;78;50730;-74
2023/04/25 11:50:25;;;;;;;;;;;;;;;19.77;59.85;100243.81;2258632;78;50927;-75
2023/04/25 11:53:28;;;;;;;;;;;;;;;19.77;59.86;100247.02;2240410;78;50211;-74
2023/04/25 11:56:30;;;;;;;;;;;;;;;19.76;59.84;100248.05;2252590;78;52478;-74
2023/04/25 11:59:32;;;;;;;;;;;;;;;19.78;59.77;100250.86;2266788;78;50690;-74
2023/04/25 12:02:35;;;;;;;;;;;;;;;19.78;59.76;100251.34;2255415;78;50398;-73
2023/04/25 12:05:37;;;;;;;;;;;;;;;19.78;59.74;100253.54;2207411;78;50392;-73
2023/04/25 12:08:39;;;;;;;;;;;;;;;19.80;59.72;100254.66;2239318;78;50966;-73
2023/04/25 12:11:51;;;;;;;;;;;;;;;19.80;59.67;100249.29;2239721;78;51022;-75
2023/04/25 12:14:56;;;;;;;;;;;;;;;19.76;59.83;100264.16;2264710;77;50317;-75
2023/04/25 12:17:58;;;;;;;;;;;;;;;19.75;59.83;100260.63;2265024;77;50782;-75
2023/04/25 12:21:00;;;;;;;;;;;;;;;19.77;59.89;100255.89;2264500;78;51532;-74
2023/04/25 12:24:12;;;;;;;;;;;;;;;19.76;59.92;100254.25;2264600;78;50669;-74
2023/04/25 12:27:16;;;;;;;;;;;;;;;19.78;59.95;100263.42;2264796;77;50319;-74
2023/04/25 12:30:17;;;;;;;;;;;;;;;19.77;59.92;100264.47;2265655;78;50816;-73
2023/04/25 12:33:19;;;;;;;;;;;;;;;19.79;59.92;100267.78;2245686;77;51157;-73
2023/04/25 12:36:20;;;;;;;;;;;;;;;19.81;59.90;100261.70;2231059;77;50647;-74
2023/04/25 12:39:23;;;;;;;;;;;;;;;19.83;59.79;100258.28;2207657;80;52091;-74
2023/04/25 12:42:24;;;;;;;;;;;;;;;19.84;59.79;100263.98;2230178;80;51588;-74
2023/04/25 12:45:26;;;;;;;;;;;;;;;19.88;59.76;100262.53;2207189;80;52558;-74
2023/04/25 12:48:27;;;;;;;;;;;;;;;19.90;59.69;100270.40;2230145;80;51334;-74
2023/04/25 12:51:29;;;;;;;;;;;;;;;19.91;59.60;100268.02;2207979;80;51429;-74
2023/04/25 12:54:31;;;;;;;;;;;;;;;19.90;59.52;100278.45;2230021;78;50287;-75
2023/04/25 12:57:32;;;;;;;;;;;;;;;19.89;59.49;100266.08;2207554;79;52571;-73
2023/04/25 13:00:34;;;;;;;;;;;;;;;19.90;59.33;100281.14;2230450;80;50656;-74
2023/04/25 13:03:36;;;;;;;;;;;;;;;19.88;59.40;100280.51;2237663;78;50363;-74
2023/04/25 13:06:37;;;;;;;;;;;;;;;19.87;59.39;100276.17;2207220;80;50307;-74
2023/04/25 13:09:39;;;;;;;;;;;;;;;19.87;59.39;100283.71;2184251;80;52990;-74
2023/04/25 13:12:40;;;;;;;;;;;;;;;19.87;59.38;100278.86;2230103;80;50751;-73
2023/04/25 13:15:42;;;;;;;;;;;;;;;19.88;59.31;100281.84;2230155;80;50779;-73
2023/04/25 13:18:44;;;;;;;;;;;;;;;19.87;59.31;100270.81;2230432;80;50643;-73
2023/04/25 13:21:45;;;;;;;;;;;;;;;19.87;59.29;100283.71;2207393;79;49369;-74
2023/04/25 13:24:47;;;;;;;;;;;;;;;19.90;59.27;100271.74;2207685;80;50496;-74
2023/04/25 13:27:48;;;;;;;;;;;;;;;19.89;59.20;100279.50;2207465;80;50337;-73
2023/04/25 13:30:51;;;;;;;;;;;;;;;19.90;59.17;100273.09;2230271;80;50645;-73
2023/04/25 13:33:53;;;;;;;;;;;;;;;19.89;59.20;100282.19;2202112;78;51484;-74
2023/04/25 13:36:54;;;;;;;;;;;;;;;19.87;59.24;100277.00;2230189;80;50266;-73
2023/04/25 13:39:56;;;;;;;;;;;;;;;19.86;59.29;100278.53;2230165;80;50441;-74
2023/04/25 13:42:57;;;;;;;;;;;;;;;19.85;59.27;100288.45;2184035;80;51772;-73
2023/04/25 13:45:59;;;;;;;;;;;;;;;19.83;59.27;100289.67;2184414;80;51166;-74
2023/04/25 13:49:01;;;;;;;;;;;;;;;19.84;59.24;100287.33;2207542;80;50661;-73
2023/04/25 13:52:02;;;;;;;;;;;;;;;19.82;59.24;100292.06;2230145;80;50178;-75
2023/04/25 13:55:06;;;;;;;;;;;;;;;19.82;59.19;100302.80;2207371;80;51448;-74
2023/04/25 13:58:07;;;;;;;;;;;;;;;19.82;59.19;100296.09;2208357;78;21935;-74
2023/04/25 14:01:09;;;;;;;;;;;;;;;19.84;59.13;100298.06;2211004;78;50256;-74
2023/04/25 14:04:10;;;;;;;;;;;;;;;19.83;59.16;100301.23;2257062;78;50056;-74
2023/04/25 14:07:12;;;;;;;;;;;;;;;19.82;59.21;100302.80;2207562;80;50758;-74
2023/04/25 14:10:14;;;;;;;;;;;;;;;19.80;59.23;100303.81;2207481;80;50969;-74
2023/04/25 14:13:15;;;;;;;;;;;;;;;19.78;59.21;100300.52;2229966;80;50252;-74
2023/04/25 14:16:17;;;;;;;;;;;;;;;19.78;59.15;100309.91;2229785;80;50734;-74
2023/04/25 14:19:18;;;;;;;;;;;;;;;19.78;59.21;100309.06;2230025;80;50649;-74
2023/04/25 14:22:20;;;;;;;;;;;;;;;19.75;59.19;100310.81;2207119;78;51599;-74
2023/04/25 14:25:23;;;;;;;;;;;;;;;19.74;59.11;100320.72;2227778;78;50726;-73
2023/04/25 14:28:24;;;;;;;;;;;;;;;19.75;59.10;100328.25;2226243;78;51551;-74
2023/04/25 14:31:26;;;;;;;;;;;;;;;19.73;59.05;100331.16;2235268;77;52180;-74
2023/04/25 14:34:27;;;;;;;;;;;;;;;19.74;59.07;100336.83;2218031;79;51436;-75
2023/04/25 14:37:29;;;;;;;;;;;;;;;19.76;59.07;100336.13;2241957;78;51425;-73
2023/04/25 14:40:30;;;;;;;;;;;;;;;19.77;58.98;100338.29;2253107;78;50310;-73
2023/04/25 14:43:32;;;;;;;;;;;;;;;19.83;58.85;100339.34;2232378;78;49573;-74
2023/04/25 14:46:34;;;;;;;;;;;;;;;19.83;58.97;100336.66;2205578;80;51244;-74
2023/04/25 14:49:35;;;;;;;;;;;;;;;19.81;58.97;100328.83;2230106;80;50318;-74
2023/04/25 14:52:37;;;;;;;;;;;;;;;19.83;58.91;100340.69;2207671;78;50289;-74
2023/04/25 14:55:40;;;;;;;;;;;;;;;19.83;59.01;100344.72;2243796;78;51650;-75
2023/04/25 14:58:42;;;;;;;;;;;;;;;19.84;59.06;100349.08;2205977;79;51311;-74
2023/04/25 15:01:43;;;;;;;;;;;;;;;19.83;59.08;100344.72;2236898;78;50661;-74
2023/04/25 15:04:45;;;;;;;;;;;;;;;19.78;59.08;100348.84;2240314;78;50439;-74
2023/04/25 15:07:47;;;;;;;;;;;;;;;19.76;59.12;100353.58;2267027;78;51512;-74
2023/04/25 15:10:49;;;;;;;;;;;;;;;19.73;59.08;100353.98;2219962;78;51040;-75
2023/04/25 15:13:51;;;;;;;;;;;;;;;19.72;59.10;100364.38;2243415;78;50406;-74
2023/04/25 15:16:52;;;;;;;;;;;;;;;19.68;59.07;100357.77;2267007;78;51501;-74
2023/04/25 15:19:54;;;;;;;;;;;;;;;19.70;59.12;100356.20;2248839;78;50680;-73
2023/04/25 15:22:56;;;;;;;;;;;;;;;19.69;59.06;100365.30;2184375;80;52702;-74
2023/04/25 15:25:57;;;;;;;;;;;;;;;19.69;58.92;100366.13;2230058;80;51444;-72
2023/04/25 15:28:59;;;;;;;;;;;;;;;19.64;58.96;100358.32;2217857;78;50286;-73
2023/04/25 15:32:00;;;;;;;;;;;;;;;19.68;59.31;100348.86;2219720;78;50262;-73
2023/04/25 15:35:03;;;;;;;;;;;;;;;19.69;59.17;100350.02;2268599;77;51129;-74
2023/04/25 15:38:04;;;;;;;;;;;;;;;19.68;59.32;100356.42;2207187;80;51473;-74
2023/04/25 15:41:06;;;;;;;;;;;;;;;19.69;59.41;100351.88;2245954;78;50686;-74